Time;durP1;ratioP1;P1;durP2;ratioP2;P2;SDS_P1;SDS_P2;PMS_P1;PMS_P2;Temp;Humidity;BMP_temperature;BMP_pressure;BME280_temperature;BME280_humidity;BME280_pressure;Samples;Min_cycle;Max_cycle;Signal;HPM_P1;HPM_P2
2023/01/19 00:00:16;;;;;;;12.48;6.55;;;-3.20;99.90;;;-4.48;100.00;96174.59;5050213;28;20116;-36
2023/01/19 00:02:46;;;;;;;12.52;6.30;;;-3.30;99.90;;;-4.46;100.00;96173.75;5055052;28;20035;-37
2023/01/19 00:05:12;;;;;;;13.07;7.15;;;-3.30;99.90;;;-4.48;100.00;96174.59;5048417;28;20029;-37
2023/01/19 00:07:38;;;;;;;11.05;6.50;;;-3.30;99.90;;;-4.62;100.00;96156.56;5050575;28;20037;-36
2023/01/19 00:10:04;;;;;;;11.23;6.28;;;-3.30;99.90;;;-4.42;100.00;96179.75;5052709;28;20059;-36
2023/01/19 00:12:30;;;;;;;9.93;6.10;;;-3.30;99.90;;;-4.45;100.00;96180.63;5049878;28;20051;-36
2023/01/19 00:14:56;;;;;;;13.55;6.70;;;-3.30;99.90;;;-4.47;100.00;96184.91;5064862;22;20589;-47
2023/01/19 00:17:21;;;;;;;12.63;7.05;;;-3.30;99.90;;;-4.49;100.00;96189.16;5052268;28;20028;-48
2023/01/19 00:19:47;;;;;;;12.43;6.50;;;-3.30;99.90;;;-4.48;100.00;96190.91;5053171;28;20543;-47
2023/01/19 00:22:13;;;;;;;10.13;6.22;;;-3.30;99.90;;;-4.48;100.00;96187.47;5051376;28;20029;-47
2023/01/19 00:24:38;;;;;;;11.55;6.57;;;-3.30;99.90;;;-4.51;100.00;96180.59;5046687;28;20082;-49
2023/01/19 00:27:04;;;;;;;11.65;6.80;;;-3.30;99.90;;;-4.50;100.00;96179.75;5031908;28;20025;-45
2023/01/19 00:29:32;;;;;;;11.40;6.50;;;-3.30;99.90;;;-4.50;100.00;96182.31;5034127;28;20032;-45
2023/01/19 00:32:02;;;;;;;11.25;6.47;;;-3.30;99.90;;;-4.54;100.00;96183.19;5020859;28;20551;-45
2023/01/19 00:34:38;;;;;;;13.70;6.70;;;-3.40;99.90;;;-4.55;100.00;96188.31;5032038;28;20036;-46
2023/01/19 00:37:08;;;;;;;14.13;6.43;;;-3.40;99.90;;;-4.69;100.00;96167.69;5031314;28;20029;-45
2023/01/19 00:39:33;;;;;;;10.55;6.80;;;-3.40;99.90;;;-4.66;100.00;96180.56;5030415;28;20032;-47
2023/01/19 00:44:44;;;;;;;13.65;7.32;;;-3.40;99.90;;;-4.61;100.00;96184.88;5030982;28;20036;-49
2023/01/19 00:47:09;;;;;;;12.95;7.25;;;-3.40;99.90;;;-4.73;100.00;96168.53;5033075;28;20029;-48
2023/01/19 00:49:35;;;;;;;10.82;6.93;;;-3.40;99.90;;;-4.80;100.00;96152.22;5032159;28;20043;-48
2023/01/19 00:52:01;;;;;;;11.43;6.75;;;-3.40;99.90;;;-4.63;100.00;96190.84;5031285;28;20033;-49
2023/01/19 00:54:26;;;;;;;11.65;6.60;;;-3.40;99.90;;;-4.59;100.00;96190.03;5028875;28;20068;-48
2023/01/19 00:56:52;;;;;;;12.65;7.32;;;-3.40;99.90;;;-4.62;100.00;96192.56;5030887;28;20036;-48
2023/01/19 00:59:18;;;;;;;10.85;6.85;;;-3.40;99.90;;;-4.61;100.00;96195.16;5032105;28;20051;-48
2023/01/19 01:01:44;;;;;;;11.93;7.35;;;-3.40;99.90;;;-4.63;100.00;96191.72;5029987;28;20029;-47
2023/01/19 01:04:13;;;;;;;13.20;7.22;;;-3.40;99.90;;;-4.63;100.00;96190.84;5034094;28;20288;-47
2023/01/19 01:06:38;;;;;;;12.63;7.07;;;-3.40;99.90;;;-4.67;100.00;96196.84;5031827;28;20099;-45
2023/01/19 01:09:10;;;;;;;12.35;7.38;;;-3.50;99.90;;;-4.67;100.00;96189.97;5028443;28;20029;-46
2023/01/19 01:11:41;;;;;;;13.52;7.05;;;-3.40;99.90;;;-4.64;100.00;96191.72;5031472;28;20040;-48
2023/01/19 01:14:09;;;;;;;12.23;7.13;;;-3.50;99.90;;;-4.73;100.00;96191.69;5030173;28;20756;-49
2023/01/19 01:16:34;;;;;;;12.77;7.20;;;-3.50;99.90;;;-4.67;100.00;96191.69;5035408;28;20044;-47
2023/01/19 01:19:00;;;;;;;12.30;7.28;;;-3.50;99.90;;;-4.68;100.00;96192.56;5034995;28;20028;-46
2023/01/19 01:21:26;;;;;;;14.13;7.68;;;-3.50;99.90;;;-4.85;100.00;96170.19;5027638;28;20151;-48
2023/01/19 01:23:52;;;;;;;15.23;7.82;;;-3.50;99.90;;;-4.74;100.00;96193.38;5034855;28;20415;-47
2023/01/19 01:26:17;;;;;;;12.13;7.18;;;-3.50;99.90;;;-4.73;100.00;96201.97;5030297;28;20040;-48
2023/01/19 01:28:43;;;;;;;13.00;7.85;;;-3.50;99.90;;;-4.76;100.00;96196.81;5032617;28;20065;-45
2023/01/19 01:31:09;;;;;;;13.85;7.65;;;-3.60;99.90;;;-4.76;100.00;96201.97;5029622;28;20134;-48
2023/01/19 01:33:34;;;;;;;12.07;6.85;;;-3.50;99.90;;;-4.77;100.00;96195.09;5027679;28;20037;-49
2023/01/19 01:36:00;;;;;;;14.10;7.68;;;-3.60;99.90;;;-4.82;100.00;96203.66;5029984;28;20032;-47
2023/01/19 01:38:26;;;;;;;13.93;7.07;;;-3.60;99.90;;;-4.82;100.00;96200.22;5022081;28;20044;-49
2023/01/19 01:40:51;;;;;;;14.63;7.32;;;-3.60;99.90;;;-4.80;100.00;96208.81;5032747;28;20076;-49
2023/01/19 01:43:19;;;;;;;11.43;6.57;;;-3.60;99.90;;;-4.77;100.00;96207.94;5029685;28;20486;-49
2023/01/19 01:45:46;;;;;;;10.90;7.18;;;-3.60;99.90;;;-4.75;100.00;96208.84;5030037;28;20033;-49
2023/01/19 01:48:29;;;;;;;13.30;7.40;;;-3.60;99.90;;;-4.75;100.00;96201.13;5030263;28;20060;-50
2023/01/19 01:53:58;;;;;;;14.20;7.35;;;-3.60;99.90;;;-4.74;100.00;96202.81;5035600;28;20043;-49
2023/01/19 01:56:36;;;;;;;12.88;7.22;;;-3.50;99.90;;;-4.76;100.00;96201.97;5030785;28;20041;-49
2023/01/19 01:59:07;;;;;;;13.65;7.00;;;-3.50;99.90;;;-4.73;100.00;96200.25;5025617;28;20048;-49
2023/01/19 02:04:18;;;;;;;14.85;7.80;;;-3.50;99.90;;;-4.77;100.00;96206.25;5025989;28;20098;-46
2023/01/19 02:15:02;;;;;;;14.10;7.93;;;-3.50;99.90;;;-4.73;100.00;96204.56;5027410;28;20127;-46
2023/01/19 02:17:28;;;;;;;12.43;6.85;;;-3.50;99.90;;;-4.75;100.00;96196.81;5021310;28;20477;-47
2023/01/19 02:19:54;;;;;;;11.60;7.90;;;-3.60;99.90;;;-4.70;100.00;96196.81;5028922;28;20039;-47
2023/01/19 02:22:41;;;;;;;15.48;8.52;;;-3.50;99.90;;;-4.71;100.00;96189.97;5023220;28;20032;-48
2023/01/19 02:25:07;;;;;;;14.77;8.15;;;-3.50;99.90;;;-4.70;100.00;96196.81;5020731;28;20025;-48
2023/01/19 02:27:33;;;;;;;14.48;7.75;;;-3.50;99.90;;;-4.65;100.00;96193.44;5019765;28;20543;-48
2023/01/19 02:30:02;;;;;;;15.93;8.20;;;-3.50;99.90;;;-4.65;100.00;96190.00;5026020;28;20433;-50
2023/01/19 02:32:28;;;;;;;10.75;7.32;;;-3.40;99.90;;;-4.70;100.00;96184.84;5021495;28;20029;-45
2023/01/19 02:34:54;;;;;;;15.20;7.70;;;-3.50;99.90;;;-4.70;100.00;96184.84;5027770;28;20061;-49
2023/01/19 02:37:21;;;;;;;13.63;7.70;;;-3.50;99.90;;;-4.69;100.00;96191.69;5023671;28;20816;-46
2023/01/19 02:39:50;;;;;;;14.05;7.55;;;-3.50;99.90;;;-4.69;100.00;96193.41;5020606;28;20191;-48
2023/01/19 02:42:28;;;;;;;21.38;8.82;;;-3.50;99.90;;;-4.68;100.00;96201.13;5019321;28;20083;-47
2023/01/19 02:44:56;;;;;;;14.43;7.75;;;-3.50;99.90;;;-4.70;100.00;96189.09;5025044;28;20044;-48
2023/01/19 02:47:22;;;;;;;13.63;7.75;;;-3.50;99.90;;;-4.67;100.00;96204.56;5026221;28;20695;-46
2023/01/19 02:49:59;;;;;;;13.27;7.25;;;-3.50;99.90;;;-4.65;100.00;96202.84;5029819;28;20056;-48
2023/01/19 02:52:26;;;;;;;14.95;7.20;;;-3.40;99.90;;;-4.64;100.00;96207.16;5025895;28;20633;-48
2023/01/19 02:55:14;;;;;;;14.88;7.65;;;-3.40;99.90;;;-4.67;100.00;96205.41;5021317;28;20055;-47
2023/01/19 02:58:08;;;;;;;11.85;6.75;;;-3.40;99.90;;;-4.76;100.00;96186.53;5024524;28;20140;-48
2023/01/19 03:01:09;;;;;;;15.27;8.13;;;-3.50;99.90;;;-4.71;100.00;96208.00;5023785;28;20036;-45
2023/01/19 03:03:54;;;;;;;10.75;6.75;;;-3.50;99.90;;;-4.72;100.00;96204.56;5025031;28;20029;-49
2023/01/19 03:06:42;;;;;;;13.45;6.55;;;-3.50;99.90;;;-4.76;100.00;96204.53;5029468;28;20037;-50
2023/01/19 03:09:28;;;;;;;13.15;7.22;;;-3.50;99.90;;;-4.73;100.00;96209.69;5024941;28;20121;-50
2023/01/19 03:12:11;;;;;;;14.07;6.82;;;-3.50;99.90;;;-4.77;100.00;96206.25;5026986;28;20033;-48
2023/01/19 03:14:45;;;;;;;12.23;7.28;;;-3.50;99.90;;;-4.75;100.00;96211.41;5020555;28;20047;-48
2023/01/19 03:17:14;;;;;;;14.50;7.20;;;-3.50;99.90;;;-4.77;100.00;96207.94;5015375;28;20131;-48
2023/01/19 03:19:42;;;;;;;13.25;7.53;;;-3.60;99.90;;;-4.75;100.00;96211.41;5036616;28;20120;-45
2023/01/19 03:22:28;;;;;;;14.10;7.28;;;-3.60;99.90;;;-4.76;100.00;96205.38;5019580;28;20041;-50
2023/01/19 03:25:00;;;;;;;10.93;6.57;;;-3.60;99.90;;;-4.76;100.00;96204.53;5023429;28;20043;-49
2023/01/19 03:27:31;;;;;;;11.05;6.03;;;-3.60;99.90;;;-4.76;100.00;96205.38;5022029;28;20033;-46
2023/01/19 03:30:06;;;;;;;15.45;6.97;;;-3.60;99.90;;;-4.75;100.00;96201.13;5031617;28;20103;-48
2023/01/19 03:32:48;;;;;;;13.18;6.60;;;-3.60;99.90;;;-4.74;100.00;96203.66;5019245;28;20048;-46
2023/01/19 03:35:16;;;;;;;13.68;7.30;;;-3.60;99.90;;;-4.81;100.00;96200.25;5018382;28;20151;-49
2023/01/19 03:37:44;;;;;;;14.05;6.45;;;-3.60;99.90;;;-4.76;100.00;96207.09;5012578;28;20041;-49
2023/01/19 03:40:11;;;;;;;12.55;6.45;;;-3.50;99.90;;;-4.76;100.00;96205.38;5014357;28;20079;-50
2023/01/19 03:42:37;;;;;;;10.73;6.18;;;-3.60;99.90;;;-4.79;100.00;96205.41;5024978;28;20041;-49
2023/01/19 03:45:04;;;;;;;12.75;6.38;;;-3.60;99.90;;;-4.80;100.00;96213.94;5024862;28;20039;-49
2023/01/19 03:47:30;;;;;;;10.05;6.13;;;-3.60;99.90;;;-4.85;100.00;96208.78;5007657;28;20033;-50
2023/01/19 03:49:57;;;;;;;15.10;6.10;;;-3.60;99.90;;;-4.82;100.00;96206.22;5025658;28;20419;-50
2023/01/19 03:52:28;;;;;;;10.98;6.28;;;-3.60;99.90;;;-4.82;100.00;96211.38;5020133;28;20361;-49
2023/01/19 03:54:55;;;;;;;10.13;6.13;;;-3.70;99.90;;;-4.85;100.00;96208.78;5026530;28;20493;-50
2023/01/19 03:57:21;;;;;;;11.13;6.18;;;-3.70;99.90;;;-4.87;100.00;96218.19;5022361;28;20694;-50
2023/01/19 03:59:46;;;;;;;10.60;5.80;;;-3.70;99.90;;;-4.87;100.00;96210.50;5025435;28;20798;-50
2023/01/19 04:02:13;;;;;;;11.70;6.25;;;-3.70;99.90;;;-4.85;100.00;96215.63;5022535;28;20755;-50
2023/01/19 04:04:39;;;;;;;11.23;6.32;;;-3.70;99.90;;;-4.88;100.00;96218.19;5027208;28;20108;-50
2023/01/19 04:07:05;;;;;;;11.30;5.85;;;-3.70;99.90;;;-4.91;100.00;96226.75;5033339;28;20047;-47
2023/01/19 04:09:31;;;;;;;10.52;6.13;;;-3.70;99.90;;;-4.91;100.00;96226.75;5033594;28;20082;-49
2023/01/19 04:11:57;;;;;;;12.50;6.25;;;-3.70;99.90;;;-4.88;100.00;96224.22;5026671;28;20041;-49
2023/01/19 04:14:22;;;;;;;11.20;6.30;;;-3.70;99.90;;;-4.88;100.00;96223.34;5033835;28;20025;-50
2023/01/19 04:16:48;;;;;;;9.05;5.93;;;-3.70;99.90;;;-4.89;100.00;96229.34;5028298;28;20421;-50
2023/01/19 04:19:14;;;;;;;10.27;5.90;;;-3.70;99.90;;;-4.92;100.00;96230.16;5021305;28;20256;-49
2023/01/19 04:21:40;;;;;;;13.27;6.13;;;-3.70;99.90;;;-4.94;100.00;96233.59;5027939;28;20079;-49
2023/01/19 04:24:06;;;;;;;11.10;6.22;;;-3.70;99.90;;;-4.99;100.00;96234.44;5030550;28;20124;-47
2023/01/19 04:26:31;;;;;;;13.07;6.72;;;-3.70;99.90;;;-4.99;100.00;96231.00;5034768;28;20033;-50
2023/01/19 04:28:57;;;;;;;13.98;7.05;;;-3.80;99.90;;;-4.97;100.00;96236.16;5027588;28;20044;-49
2023/01/19 04:31:23;;;;;;;12.35;6.70;;;-3.80;99.90;;;-4.96;100.00;96236.16;5028947;28;20478;-49
2023/01/19 04:33:49;;;;;;;10.07;6.00;;;-3.70;99.90;;;-4.96;100.00;96238.75;5032615;28;20249;-50
2023/01/19 04:36:14;;;;;;;11.20;6.10;;;-3.70;99.90;;;-4.99;100.00;96233.56;5032651;28;20037;-50
2023/01/19 04:38:40;;;;;;;11.02;6.65;;;-3.80;99.90;;;-5.04;100.00;96241.28;5027256;28;20036;-50
2023/01/19 04:41:06;;;;;;;11.38;6.90;;;-3.80;99.90;;;-4.98;100.00;96235.31;5033912;28;20041;-48
2023/01/19 04:43:31;;;;;;;13.07;6.03;;;-3.80;99.90;;;-4.96;100.00;96236.16;5027794;28;20029;-49
2023/01/19 04:45:58;;;;;;;13.48;6.55;;;-3.80;99.90;;;-4.94;100.00;96234.44;5025993;28;20497;-49
2023/01/19 04:48:23;;;;;;;10.48;6.43;;;-3.70;99.90;;;-4.95;100.00;96245.59;5029141;28;20029;-50
2023/01/19 04:50:51;;;;;;;12.60;6.90;;;-3.70;99.90;;;-5.06;100.00;96219.84;5033436;28;20766;-50
2023/01/19 04:53:17;;;;;;;12.25;6.43;;;-3.70;99.90;;;-5.04;100.00;96240.44;5025686;28;20151;-51
2023/01/19 04:55:43;;;;;;;11.77;6.45;;;-3.80;99.90;;;-4.99;100.00;96243.84;5012395;28;20051;-46
2023/01/19 04:58:09;;;;;;;13.18;6.50;;;-3.80;99.90;;;-4.96;100.00;96243.88;5022677;28;20060;-47
2023/01/19 05:00:35;;;;;;;11.00;6.22;;;-3.80;99.90;;;-4.97;100.00;96246.44;5029005;28;20033;-50
2023/01/19 05:03:01;;;;;;;12.48;6.65;;;-3.80;99.90;;;-5.00;100.00;96249.88;5012599;28;20091;-50
2023/01/19 05:05:26;;;;;;;12.20;6.88;;;-3.80;99.90;;;-5.02;100.00;96244.72;5027949;28;20034;-50
2023/01/19 05:07:52;;;;;;;15.07;7.88;;;-3.80;99.90;;;-5.02;100.00;96246.44;5027695;28;20169;-50
2023/01/19 05:10:19;;;;;;;14.30;6.90;;;-3.80;99.90;;;-5.01;100.00;96251.59;5033849;28;20392;-50
2023/01/19 05:12:44;;;;;;;12.75;7.18;;;-3.80;99.90;;;-4.99;100.00;96244.72;5026857;28;20494;-49
2023/01/19 05:15:10;;;;;;;11.02;6.40;;;-3.80;99.90;;;-4.88;100.00;96249.06;5023128;28;20091;-47
2023/01/19 05:17:36;;;;;;;12.98;7.15;;;-3.70;99.90;;;-4.89;100.00;96239.63;5019810;28;21031;-48
2023/01/19 05:20:03;;;;;;;15.35;7.75;;;-3.60;99.90;;;-4.75;100.00;96247.41;5023370;28;20067;-49
2023/01/19 05:22:29;;;;;;;17.60;8.25;;;-3.50;99.90;;;-4.72;100.00;96248.28;5023803;28;20076;-48
2023/01/19 05:24:55;;;;;;;15.30;7.78;;;-3.50;99.90;;;-4.69;100.00;96247.44;5018577;28;20654;-49
2023/01/19 05:27:20;;;;;;;12.35;7.30;;;-3.50;99.90;;;-4.68;100.00;96244.03;5030442;28;23519;-47
2023/01/19 05:29:46;;;;;;;12.32;7.40;;;-3.50;99.90;;;-4.67;100.00;96248.28;5030244;28;20034;-49
2023/01/19 05:32:12;;;;;;;11.38;7.55;;;-3.50;99.90;;;-4.67;100.00;96250.88;5025039;28;20032;-48
2023/01/19 05:34:38;;;;;;;13.63;7.45;;;-3.50;99.90;;;-4.65;100.00;96262.03;5025078;28;20620;-49
2023/01/19 05:37:04;;;;;;;15.75;7.75;;;-3.50;99.90;;;-4.67;100.00;96250.88;5029336;28;20032;-50
2023/01/19 05:39:29;;;;;;;13.40;7.53;;;-3.50;99.90;;;-4.70;100.00;96261.13;5028504;28;20399;-49
2023/01/19 05:41:55;;;;;;;12.93;7.63;;;-3.50;99.90;;;-4.75;100.00;96255.13;5028623;28;20866;-49
2023/01/19 05:44:21;;;;;;;13.68;7.75;;;-3.50;99.90;;;-4.79;100.00;96264.56;5026056;28;20727;-51
2023/01/19 05:46:47;;;;;;;13.25;7.90;;;-3.60;99.90;;;-4.81;100.00;96261.97;5018880;28;20139;-47
2023/01/19 05:49:13;;;;;;;13.73;7.38;;;-3.60;99.90;;;-4.83;100.00;96262.78;5026523;28;20033;-48
2023/01/19 05:51:44;;;;;;;13.98;7.38;;;-3.60;99.90;;;-4.78;100.00;96271.41;5024584;28;20462;-45
2023/01/19 05:54:13;;;;;;;15.05;8.25;;;-3.60;99.90;;;-4.78;100.00;96273.97;5020597;28;20048;-46
2023/01/19 05:56:39;;;;;;;15.25;8.15;;;-3.60;99.90;;;-4.79;100.00;96274.84;5030024;28;20029;-46
2023/01/19 05:59:05;;;;;;;16.77;7.95;;;-3.60;99.90;;;-4.77;100.00;96280.84;5022877;28;20374;-46
2023/01/19 06:01:32;;;;;;;13.05;7.88;;;-3.60;99.90;;;-4.79;100.00;96285.13;5025556;28;20036;-45
2023/01/19 06:03:57;;;;;;;14.80;8.00;;;-3.60;99.90;;;-4.75;100.00;96281.72;5018539;28;20617;-47
2023/01/19 06:06:23;;;;;;;13.57;8.48;;;-3.60;99.90;;;-4.78;100.00;96278.25;5023597;28;20853;-45
2023/01/19 06:08:49;;;;;;;15.05;7.35;;;-3.60;99.90;;;-4.82;100.00;96283.38;5021727;28;21029;-48
2023/01/19 06:11:14;;;;;;;14.80;7.93;;;-3.60;99.90;;;-4.83;100.00;96283.38;5027284;28;20037;-48
2023/01/19 06:13:40;;;;;;;13.40;7.40;;;-3.60;99.90;;;-4.77;100.00;96291.13;5020269;28;20037;-45
2023/01/19 06:16:07;;;;;;;14.75;8.18;;;-3.60;99.90;;;-4.74;100.00;96283.41;5017033;28;20286;-48
2023/01/19 06:18:33;;;;;;;16.83;8.07;;;-3.50;99.90;;;-4.75;100.00;96288.56;5025829;28;20181;-46
2023/01/19 06:21:02;;;;;;;15.63;8.40;;;-3.50;99.90;;;-4.71;100.00;96292.88;5021957;28;20564;-45
2023/01/19 06:23:32;;;;;;;14.90;8.48;;;-3.50;99.90;;;-4.68;100.00;96295.47;5021797;28;20095;-48
2023/01/19 06:25:58;;;;;;;15.38;8.60;;;-3.50;99.90;;;-4.71;100.00;96298.03;5011073;28;20071;-46
2023/01/19 06:28:24;;;;;;;13.95;8.10;;;-3.50;99.90;;;-4.74;100.00;96291.13;5011484;28;20070;-49
2023/01/19 06:30:51;;;;;;;17.10;8.65;;;-3.50;99.90;;;-4.65;100.00;96304.06;5022362;28;20042;-49
2023/01/19 06:33:18;;;;;;;13.90;7.65;;;-3.50;99.90;;;-4.67;100.00;96304.88;5018988;28;20037;-49
2023/01/19 06:35:46;;;;;;;15.82;8.45;;;-3.50;99.90;;;-4.73;100.00;96315.16;5023118;28;20025;-49
2023/01/19 06:38:12;;;;;;;12.80;7.70;;;-3.50;99.90;;;-4.78;100.00;96309.13;5022688;28;20086;-47
2023/01/19 06:40:39;;;;;;;12.38;7.82;;;-3.60;99.90;;;-4.81;100.00;96315.09;5018832;28;20126;-49
2023/01/19 06:43:06;;;;;;;14.07;8.10;;;-3.50;99.90;;;-4.81;100.00;96315.97;5020007;28;20370;-48
2023/01/19 06:45:32;;;;;;;14.93;8.30;;;-3.60;99.90;;;-4.87;100.00;96320.22;5026121;28;20185;-50
2023/01/19 06:47:58;;;;;;;12.88;7.72;;;-3.60;99.90;;;-4.80;100.00;96315.09;5030904;28;20036;-47
2023/01/19 06:50:24;;;;;;;15.77;7.97;;;-3.60;99.90;;;-4.80;100.00;96324.56;5028303;28;20106;-50
2023/01/19 06:52:50;;;;;;;13.63;7.55;;;-3.60;99.90;;;-4.84;100.00;96318.53;5027739;28;20037;-46
2023/01/19 06:55:16;;;;;;;14.57;8.07;;;-3.60;99.90;;;-4.82;100.00;96324.53;5020897;28;20535;-48
2023/01/19 06:57:43;;;;;;;11.73;7.30;;;-3.60;99.90;;;-4.77;100.00;96318.56;5022900;28;20055;-48
2023/01/19 07:00:11;;;;;;;15.05;7.93;;;-3.60;99.90;;;-4.83;100.00;96315.13;5025261;28;20090;-50
2023/01/19 07:02:41;;;;;;;13.95;7.68;;;-3.60;99.90;;;-4.86;100.00;96325.38;5024113;28;20044;-48
2023/01/19 07:05:08;;;;;;;14.32;7.22;;;-3.60;99.90;;;-4.88;100.00;96318.47;5024597;28;20044;-46
2023/01/19 07:07:34;;;;;;;11.20;6.93;;;-3.60;99.90;;;-4.86;100.00;96327.94;5032307;28;20450;-48
2023/01/19 07:10:00;;;;;;;15.68;8.07;;;-3.60;99.90;;;-4.83;100.00;96327.97;5026647;28;20302;-50
2023/01/19 07:12:26;;;;;;;12.55;7.57;;;-3.60;99.90;;;-4.83;100.00;96322.84;5022747;28;20029;-49
2023/01/19 07:14:51;;;;;;;13.45;7.60;;;-3.60;99.90;;;-4.77;100.00;96331.41;5019638;28;20046;-49
2023/01/19 07:17:18;;;;;;;12.07;7.07;;;-3.60;99.90;;;-4.76;100.00;96323.72;5021314;28;20390;-49
2023/01/19 07:19:45;;;;;;;13.63;7.25;;;-3.50;99.90;;;-4.75;100.00;96324.59;5018017;28;20061;-49
2023/01/19 07:22:10;;;;;;;12.43;7.05;;;-3.50;99.90;;;-4.73;100.00;96315.16;5020925;28;20487;-48
2023/01/19 07:24:36;;;;;;;16.70;7.25;;;-3.50;99.90;;;-4.72;100.00;96315.19;5022803;28;20377;-47
2023/01/19 07:27:04;;;;;;;14.00;7.85;;;-3.50;99.90;;;-4.71;100.00;96327.16;5025679;28;20427;-46
2023/01/19 07:29:29;;;;;;;13.57;7.30;;;-3.50;99.90;;;-4.68;100.00;96326.34;5025128;28;20218;-50
2023/01/19 07:31:55;;;;;;;11.45;7.03;;;-3.50;99.90;;;-4.66;100.00;96333.19;5022194;28;20033;-48
2023/01/19 07:34:21;;;;;;;12.60;7.10;;;-3.50;99.90;;;-4.63;100.00;96322.94;5023900;28;20502;-49
2023/01/19 07:36:47;;;;;;;13.88;6.97;;;-3.40;99.90;;;-4.60;100.00;96329.78;5028391;28;20082;-48
2023/01/19 07:39:13;;;;;;;12.23;5.82;;;-3.40;99.90;;;-4.53;100.00;96326.41;5033319;28;20470;-48
2023/01/19 07:41:39;;;;;;;11.23;6.28;;;-3.40;99.90;;;-4.52;100.00;96323.00;5037197;28;20037;-48
2023/01/19 07:44:04;;;;;;;12.05;6.40;;;-3.30;99.90;;;-4.49;100.00;96329.84;5032727;28;20138;-49
2023/01/19 07:46:30;;;;;;;11.48;6.30;;;-3.30;99.90;;;-4.47;100.00;96335.88;5037692;28;20037;-50
2023/01/19 07:48:56;;;;;;;9.45;5.88;;;-3.30;99.90;;;-4.49;100.00;96328.13;5035706;28;20507;-49
2023/01/19 07:51:21;;;;;;;11.05;6.63;;;-3.30;99.90;;;-4.45;100.00;96329.88;5031471;28;20029;-49
2023/01/19 07:53:51;;;;;;;9.73;5.88;;;-3.30;99.90;;;-4.42;100.00;96339.31;5031194;28;20383;-49
2023/01/19 07:56:16;;;;;;;9.05;6.00;;;-3.30;99.90;;;-4.40;100.00;96337.59;5036469;28;20124;-49
2023/01/19 07:58:42;;;;;;;11.40;5.93;;;-3.30;99.90;;;-4.34;100.00;96340.22;5034406;28;20118;-48
2023/01/19 08:01:12;;;;;;;9.18;5.65;;;-3.20;99.90;;;-4.29;100.00;96342.81;5029592;28;20504;-49
2023/01/19 08:03:38;;;;;;;11.35;6.07;;;-3.10;99.90;;;-4.24;100.00;96341.13;5019459;28;20040;-45
2023/01/19 08:06:05;;;;;;;11.57;6.18;;;-3.00;99.90;;;-4.22;100.00;96348.00;5033281;28;20543;-46
2023/01/19 08:08:32;;;;;;;10.27;5.70;;;-3.00;99.90;;;-4.14;100.00;96350.59;5029503;28;20045;-49
2023/01/19 08:10:58;;;;;;;9.50;5.93;;;-3.00;99.90;;;-4.07;100.00;96349.75;5026672;28;20507;-47
2023/01/19 08:13:25;;;;;;;9.35;5.45;;;-2.90;99.90;;;-4.02;100.00;96357.50;5028276;28;20040;-46
2023/01/19 08:15:52;;;;;;;11.65;5.55;;;-2.80;99.90;;;-4.04;100.00;96349.78;5023482;28;20056;-48
2023/01/19 08:18:19;;;;;;;9.20;5.40;;;-2.80;99.90;;;-3.95;100.00;96355.81;5019119;28;20114;-47
2023/01/19 08:20:45;;;;;;;10.90;5.90;;;-2.80;99.90;;;-3.93;100.00;96357.53;5018186;28;20041;-45
2023/01/19 08:23:11;;;;;;;9.77;5.63;;;-2.70;99.90;;;-3.83;100.00;96363.56;5023816;28;20738;-48
2023/01/19 08:25:43;;;;;;;9.02;5.22;;;-2.70;99.90;;;-3.79;100.00;96367.03;5025725;28;20155;-45
2023/01/19 08:28:10;;;;;;;10.45;5.65;;;-2.60;99.90;;;-3.72;100.00;96363.59;5026925;28;20028;-48
2023/01/19 08:30:37;;;;;;;7.95;5.45;;;-2.50;99.90;;;-3.72;100.00;96358.44;5028979;28;20040;-48
2023/01/19 08:33:03;;;;;;;10.48;5.20;;;-2.50;99.90;;;-3.61;100.00;96372.19;5032708;28;20119;-44
2023/01/19 08:35:34;;;;;;;11.85;5.88;;;-2.40;99.90;;;-3.55;100.00;96373.94;5035085;28;20057;-48
2023/01/19 08:38:00;;;;;;;9.82;5.60;;;-2.40;99.90;;;-3.54;100.00;96373.94;5036240;28;20029;-49
2023/01/19 08:40:33;;;;;;;12.90;5.38;;;-2.30;99.90;;;-3.42;100.00;96383.41;5032758;28;20448;-45
2023/01/19 08:43:05;;;;;;;11.25;6.28;;;-2.30;99.90;;;-3.41;100.00;96381.69;5033307;28;20101;-47
2023/01/19 08:45:31;;;;;;;;;;;-2.20;99.90;;;-3.40;100.00;96375.69;5035021;28;20025;-49
2023/01/19 08:48:00;;;;;;;9.35;5.63;;;-2.20;99.90;;;-3.31;100.00;96386.88;5034476;28;20821;-45
2023/01/19 08:50:28;;;;;;;8.88;5.15;;;-2.20;99.90;;;-3.23;100.00;96391.16;5035316;28;20686;-46
2023/01/19 08:52:58;;;;;;;10.90;5.80;;;-2.10;99.90;;;-3.37;100.00;96366.25;5035170;28;20072;-45
2023/01/19 08:55:24;;;;;;;8.38;5.30;;;-2.10;99.90;;;-3.19;100.00;96390.34;5033096;28;20469;-47
2023/01/19 08:57:58;;;;;;;10.48;5.18;;;-2.00;99.90;;;-3.12;100.00;96385.16;5034910;28;20025;-47
2023/01/19 09:00:26;;;;;;;8.43;4.82;;;-1.90;99.90;;;-3.05;100.00;96388.63;5034676;28;20057;-45
2023/01/19 09:02:52;;;;;;;8.30;5.10;;;-1.90;99.90;;;-2.90;100.00;96398.91;5034888;28;20044;-46
2023/01/19 09:05:19;;;;;;;9.57;4.95;;;-1.70;99.90;;;-2.75;100.00;96392.03;5033381;28;20059;-45
2023/01/19 09:07:48;;;;;;;9.27;4.97;;;-1.60;99.90;;;-2.60;100.00;96394.59;5030893;28;20148;-46
2023/01/19 09:10:15;;;;;;;9.63;5.45;;;-1.40;99.90;;;-2.36;100.00;96400.59;5029005;28;20033;-48
2023/01/19 09:12:42;;;;;;;10.63;5.50;;;-1.20;99.90;;;-2.05;100.00;96396.19;5033325;28;20068;-45
2023/01/19 09:15:09;;;;;;;8.45;5.63;;;-0.90;99.90;;;-1.75;100.00;96400.38;5025835;28;20041;-46
2023/01/19 09:17:35;;;;;;;8.65;5.32;;;-0.60;99.90;;;-1.50;100.00;96397.66;5034648;28;20064;-46
2023/01/19 09:20:01;;;;;;;7.85;5.07;;;-0.40;99.90;;;-1.33;100.00;96402.72;5033810;28;20120;-50
2023/01/19 09:22:27;;;;;;;10.27;4.18;;;-0.20;99.90;;;-1.11;100.00;96413.81;5030877;28;20262;-49
2023/01/19 09:24:53;;;;;;;10.38;4.88;;;0.00;99.90;;;-1.02;100.00;96408.56;5029310;28;20029;-49
2023/01/19 09:27:19;;;;;;;7.75;4.10;;;0.10;99.90;;;-0.94;100.00;96408.50;5029407;28;20033;-49
2023/01/19 09:29:51;;;;;;;6.55;4.22;;;0.20;99.90;;;-0.87;100.00;96410.16;5031874;28;20036;-50
2023/01/19 09:32:18;;;;;;;;;;;0.30;99.90;;;-0.77;100.00;96410.97;5026324;28;20029;-49
2023/01/19 09:34:44;;;;;;;6.78;4.45;;;0.40;99.90;;;-0.69;100.00;96406.56;5032073;28;19927;-48
2023/01/19 09:37:10;;;;;;;7.00;4.72;;;0.40;99.90;;;-0.60;100.00;96405.63;5034222;28;20086;-47
2023/01/19 09:39:35;;;;;;;6.55;3.92;;;0.60;99.90;;;-0.47;100.00;96402.03;5031192;28;20033;-49
2023/01/19 09:42:26;;;;;;;6.93;4.45;;;0.60;99.90;;;-0.32;100.00;96407.94;5031203;28;20056;-48
2023/01/19 09:44:53;;;;;;;9.32;4.07;;;0.80;99.90;;;-0.33;100.00;96398.47;5026131;28;20024;-51
2023/01/19 09:47:24;;;;;;;8.00;3.85;;;0.90;99.90;;;-0.20;100.00;96400.06;5030886;28;20032;-49
2023/01/19 09:50:11;;;;;;;7.63;4.05;;;1.00;99.90;;;-0.03;100.00;96407.66;5028958;28;20053;-49
2023/01/19 09:52:41;;;;;;;6.45;3.85;;;1.10;99.90;;;0.08;100.00;96410.97;5031722;28;20029;-49
2023/01/19 09:55:21;;;;;;;6.30;3.95;;;1.10;99.90;;;0.12;100.00;96391.06;5030468;28;20052;-50
2023/01/19 09:57:46;;;;;;;6.70;4.05;;;1.20;99.90;;;0.07;100.00;96408.41;5031186;28;20029;-50
2023/01/19 10:00:21;;;;;;;7.03;3.85;;;1.20;99.90;;;0.07;100.00;96404.09;5034674;28;20037;-48
2023/01/19 10:02:54;;;;;;;8.40;4.32;;;1.10;99.90;;;0.08;100.00;96410.97;5030737;28;20032;-48
2023/01/19 10:05:34;;;;;;;7.32;4.30;;;1.10;99.90;;;0.04;100.00;96409.31;5026674;28;20575;-46
2023/01/19 10:08:26;;;;;;;6.32;4.07;;;1.10;99.90;;;-0.06;100.00;96412.88;5030923;28;20033;-49
2023/01/19 10:10:55;;;;;;;5.28;3.80;;;1.00;99.90;;;-0.24;100.00;96409.59;5028400;28;20060;-50
2023/01/19 10:13:45;;;;;;;7.93;3.90;;;0.80;99.90;;;-0.32;100.00;96406.25;5025617;28;21017;-46
2023/01/19 10:16:35;;;;;;;7.13;3.88;;;0.70;99.90;;;-0.27;100.00;96407.06;5024083;28;20036;-45
2023/01/19 10:19:36;;;;;;;7.45;4.10;;;0.80;99.90;;;-0.13;100.00;96408.63;5028197;28;20045;-45
2023/01/19 10:22:19;;;;;;;6.43;4.00;;;0.90;99.90;;;0.06;100.00;96402.38;5024385;28;20045;-48
2023/01/19 10:24:45;;;;;;;5.53;3.80;;;1.10;99.90;;;0.24;100.00;96400.44;5030197;28;20540;-46
2023/01/19 10:27:23;;;;;;;5.68;3.20;;;1.20;99.90;;;0.39;100.00;96405.41;5031342;28;20395;-48
2023/01/19 10:29:49;;;;;;;6.65;3.72;;;1.40;99.90;;;0.50;100.00;96402.69;5032190;28;20495;-49